sensor_id;sensor_type;location;lat;lon;timestamp;pressure;altitude;pressure_sealevel;temperature;humidity
54854;BME280;40747;49.480;8.658;2023-11-18T00:00:51;101223.78;;;7.59;100.00
54854;BME280;40747;49.480;8.658;2023-11-18T00:03:16;101234.28;;;7.64;100.00
54854;BME280;40747;49.480;8.658;2023-11-18T00:05:42;101228.13;;;7.66;100.00
54854;BME280;40747;49.480;8.658;2023-11-18T00:08:07;101232.47;;;7.74;100.00
54854;BME280;40747;49.480;8.658;2023-11-18T00:10:32;101225.50;;;7.73;100.00
54854;BME280;40747;49.480;8.658;2023-11-18T00:12:58;101223.72;;;7.73;100.00
54854;BME280;40747;49.480;8.658;2023-11-18T00:15:23;101203.66;;;7.67;100.00
54854;BME280;40747;49.480;8.658;2023-11-18T00:17:48;101221.09;;;7.79;100.00
54854;BME280;40747;49.480;8.658;2023-11-18T00:20:14;101232.44;;;7.83;100.00
54854;BME280;40747;49.480;8.658;2023-11-18T00:22:41;101234.19;;;7.82;100.00
54854;BME280;40747;49.480;8.658;2023-11-18T00:25:07;101228.94;;;7.76;100.00
54854;BME280;40747;49.480;8.658;2023-11-18T00:27:33;101222.84;;;7.79;100.00
54854;BME280;40747;49.480;8.658;2023-11-18T00:30:02;101219.34;;;7.78;100.00
54854;BME280;40747;49.480;8.658;2023-11-18T00:32:30;101209.75;;;7.69;100.00
54854;BME280;40747;49.480;8.658;2023-11-18T00:34:56;101214.09;;;7.74;100.00
54854;BME280;40747;49.480;8.658;2023-11-18T00:37:21;101213.25;;;7.68;100.00
54854;BME280;40747;49.480;8.658;2023-11-18T00:39:47;101218.53;;;7.65;100.00
54854;BME280;40747;49.480;8.658;2023-11-18T00:42:12;101212.44;;;7.60;100.00
54854;BME280;40747;49.480;8.658;2023-11-18T00:44:37;101225.56;;;7.59;100.00
54854;BME280;40747;49.480;8.658;2023-11-18T00:47:03;101217.66;;;7.62;100.00
54854;BME280;40747;49.480;8.658;2023-11-18T00:49:28;101225.56;;;7.59;100.00
54854;BME280;40747;49.480;8.658;2023-11-18T00:51:53;101222.94;;;7.59;100.00
54854;BME280;40747;49.480;8.658;2023-11-18T00:54:18;101218.56;;;7.56;100.00
54854;BME280;40747;49.480;8.658;2023-11-18T00:56:44;101219.44;;;7.61;100.00
54854;BME280;40747;49.480;8.658;2023-11-18T00:59:09;101224.69;;;7.60;100.00
54854;BME280;40747;49.480;8.658;2023-11-18T01:01:35;101185.47;;;7.27;100.00
54854;BME280;40747;49.480;8.658;2023-11-18T01:04:02;101240.41;;;7.50;100.00
54854;BME280;40747;49.480;8.658;2023-11-18T01:06:27;101237.84;;;7.35;100.00
54854;BME280;40747;49.480;8.658;2023-11-18T01:08:53;101243.97;;;7.35;100.00
54854;BME280;40747;49.480;8.658;2023-11-18T01:11:18;101250.09;;;7.30;100.00
54854;BME280;40747;49.480;8.658;2023-11-18T01:13:47;101250.13;;;7.25;100.00
54854;BME280;40747;49.480;8.658;2023-11-18T01:16:12;101256.25;;;7.22;100.00
54854;BME280;40747;49.480;8.658;2023-11-18T01:18:39;101252.75;;;7.25;100.00
54854;BME280;40747;49.480;8.658;2023-11-18T01:21:05;101256.22;;;7.26;100.00
54854;BME280;40747;49.480;8.658;2023-11-18T01:23:30;101253.59;;;7.27;100.00
54854;BME280;40747;49.480;8.658;2023-11-18T01:25:57;101256.22;;;7.26;100.00
54854;BME280;40747;49.480;8.658;2023-11-18T01:28:22;101251.84;;;7.25;100.00
54854;BME280;40747;49.480;8.658;2023-11-18T01:30:49;101245.75;;;7.24;100.00
54854;BME280;40747;49.480;8.658;2023-11-18T01:33:15;101237.91;;;7.22;100.00
54854;BME280;40747;49.480;8.658;2023-11-18T01:35:40;101245.72;;;7.27;100.00
54854;BME280;40747;49.480;8.658;2023-11-18T01:38:05;101242.25;;;7.28;100.00
54854;BME280;40747;49.480;8.658;2023-11-18T01:40:31;101249.22;;;7.29;100.00
54854;BME280;40747;49.480;8.658;2023-11-18T01:42:56;101242.22;;;7.30;100.00
54854;BME280;40747;49.480;8.658;2023-11-18T01:45:22;101237.88;;;7.27;100.00
54854;BME280;40747;49.480;8.658;2023-11-18T01:47:47;101242.22;;;7.30;100.00
54854;BME280;40747;49.480;8.658;2023-11-18T01:50:16;101245.72;;;7.29;100.00
54854;BME280;40747;49.480;8.658;2023-11-18T01:52:42;101240.50;;;7.21;100.00
54854;BME280;40747;49.480;8.658;2023-11-18T01:55:09;101253.63;;;7.15;100.00
54854;BME280;40747;49.480;8.658;2023-11-18T01:57:35;101231.81;;;6.99;100.00
54854;BME280;40747;49.480;8.658;2023-11-18T02:00:02;101257.16;;;6.98;100.00
54854;BME280;40747;49.480;8.658;2023-11-18T02:02:32;101255.41;;;6.96;100.00
54854;BME280;40747;49.480;8.658;2023-11-18T02:04:58;101235.31;;;6.87;100.00
54854;BME280;40747;49.480;8.658;2023-11-18T02:07:24;101253.63;;;6.98;100.00
54854;BME280;40747;49.480;8.658;2023-11-18T02:09:49;101262.38;;;7.00;100.00
54854;BME280;40747;49.480;8.658;2023-11-18T02:15:06;101244.03;;;6.75;100.00
54854;BME280;40747;49.480;8.658;2023-11-18T02:17:38;101254.53;;;6.77;100.00
54854;BME280;40747;49.480;8.658;2023-11-18T02:20:05;101250.16;;;6.63;100.00
54854;BME280;40747;49.480;8.658;2023-11-18T02:22:41;101258.88;;;6.61;100.00
54854;BME280;40747;49.480;8.658;2023-11-18T02:25:09;101259.75;;;6.60;100.00
54854;BME280;40747;49.480;8.658;2023-11-18T02:27:37;101254.50;;;6.50;100.00
54854;BME280;40747;49.480;8.658;2023-11-18T02:30:02;101246.63;;;6.43;100.00
54854;BME280;40747;49.480;8.658;2023-11-18T02:35:30;101244.88;;;6.23;100.00
54854;BME280;40747;49.480;8.658;2023-11-18T02:37:57;101226.53;;;6.07;100.00
54854;BME280;40747;49.480;8.658;2023-11-18T02:40:30;101253.59;;;6.23;100.00
54854;BME280;40747;49.480;8.658;2023-11-18T02:42:58;101255.31;;;6.11;100.00
54854;BME280;40747;49.480;8.658;2023-11-18T02:45:24;101253.53;;;6.00;100.00
54854;BME280;40747;49.480;8.658;2023-11-18T02:47:49;101258.69;;;5.94;100.00
54854;BME280;40747;49.480;8.658;2023-11-18T02:50:15;101257.91;;;6.03;100.00
54854;BME280;40747;49.480;8.658;2023-11-18T02:52:41;101245.56;;;5.82;100.00
54854;BME280;40747;49.480;8.658;2023-11-18T02:55:08;101253.44;;;5.85;100.00
54854;BME280;40747;49.480;8.658;2023-11-18T02:57:34;101249.00;;;5.70;100.00
54854;BME280;40747;49.480;8.658;2023-11-18T03:00:00;101240.28;;;5.65;100.00
54854;BME280;40747;49.480;8.658;2023-11-18T03:02:28;101246.41;;;5.65;100.00
54854;BME280;40747;49.480;8.658;2023-11-18T03:04:55;101241.16;;;5.62;100.00
54854;BME280;40747;49.480;8.658;2023-11-18T03:07:21;101245.47;;;5.54;100.00
54854;BME280;40747;49.480;8.658;2023-11-18T03:09:46;101250.66;;;5.52;100.00
54854;BME280;40747;49.480;8.658;2023-11-18T03:12:12;101249.81;;;5.52;100.00
54854;BME280;40747;49.480;8.658;2023-11-18T03:14:37;101240.22;;;5.49;100.00
54854;BME280;40747;49.480;8.658;2023-11-18T03:17:03;101235.03;;;5.58;100.00
54854;BME280;40747;49.480;8.658;2023-11-18T03:19:32;101244.63;;;5.61;100.00
54854;BME280;40747;49.480;8.658;2023-11-18T03:21:58;101234.13;;;5.55;100.00
54854;BME280;40747;49.480;8.658;2023-11-18T03:24:24;101242.00;;;5.60;100.00
54854;BME280;40747;49.480;8.658;2023-11-18T03:26:50;101235.03;;;5.58;100.00
54854;BME280;40747;49.480;8.658;2023-11-18T03:29:15;101235.00;;;5.46;100.00
54854;BME280;40747;49.480;8.658;2023-11-18T03:31:41;101244.50;;;5.36;100.00
54854;BME280;40747;49.480;8.658;2023-11-18T03:34:09;101250.59;;;5.31;100.00
54854;BME280;40747;49.480;8.658;2023-11-18T03:36:34;101249.59;;;5.18;100.00
54854;BME280;40747;49.480;8.658;2023-11-18T03:39:00;101243.53;;;5.20;100.00
54854;BME280;40747;49.480;8.658;2023-11-18T03:41:26;101243.53;;;5.17;100.00
54854;BME280;40747;49.480;8.658;2023-11-18T03:43:52;101237.44;;;5.17;100.00
54854;BME280;40747;49.480;8.658;2023-11-18T03:46:17;101242.59;;;5.11;100.00
54854;BME280;40747;49.480;8.658;2023-11-18T03:48:44;101243.47;;;5.11;100.00
54854;BME280;40747;49.480;8.658;2023-11-18T03:51:09;101246.06;;;5.09;100.00
54854;BME280;40747;49.480;8.658;2023-11-18T03:53:35;101252.97;;;4.98;100.00
54854;BME280;40747;49.480;8.658;2023-11-18T03:56:00;101243.34;;;4.92;100.00
54854;BME280;40747;49.480;8.658;2023-11-18T03:58:27;101248.53;;;4.91;100.00
54854;BME280;40747;49.480;8.658;2023-11-18T04:00:52;101243.31;;;4.86;100.00
54854;BME280;40747;49.480;8.658;2023-11-18T04:03:19;101254.63;;;4.87;100.00
54854;BME280;40747;49.480;8.658;2023-11-18T04:05:44;101261.53;;;4.82;100.00
54854;BME280;40747;49.480;8.658;2023-11-18T04:08:09;101258.00;;;4.78;100.00
54854;BME280;40747;49.480;8.658;2023-11-18T04:10:36;101245.75;;;4.66;100.00
54854;BME280;40747;49.480;8.658;2023-11-18T04:13:02;101250.03;;;4.58;100.00
54854;BME280;40747;49.480;8.658;2023-11-18T04:15:27;101257.88;;;4.63;100.00
54854;BME280;40747;49.480;8.658;2023-11-18T04:17:53;101255.28;;;4.63;100.00
54854;BME280;40747;49.480;8.658;2023-11-18T04:20:18;101249.22;;;4.65;100.00
54854;BME280;40747;49.480;8.658;2023-11-18T04:22:44;101252.69;;;4.64;100.00
54854;BME280;40747;49.480;8.658;2023-11-18T04:25:11;101246.59;;;4.62;100.00
54854;BME280;40747;49.480;8.658;2023-11-18T04:27:40;101226.56;;;4.58;100.00
54854;BME280;40747;49.480;8.658;2023-11-18T04:30:06;101223.06;;;4.59;100.00
54854;BME280;40747;49.480;8.658;2023-11-18T04:32:31;101235.25;;;4.60;100.00
54854;BME280;40747;49.480;8.658;2023-11-18T04:35:00;101219.53;;;4.54;100.00
54854;BME280;40747;49.480;8.658;2023-11-18T04:37:32;101209.03;;;4.43;100.00
54854;BME280;40747;49.480;8.658;2023-11-18T04:39:57;101216.00;;;4.44;100.00
54854;BME280;40747;49.480;8.658;2023-11-18T04:42:22;101218.59;;;4.46;100.00
54854;BME280;40747;49.480;8.658;2023-11-18T04:44:48;101225.47;;;4.36;100.00
54854;BME280;40747;49.480;8.658;2023-11-18T04:47:13;101230.72;;;4.39;100.00
54854;BME280;40747;49.480;8.658;2023-11-18T04:49:38;101228.25;;;4.54;100.00
54854;BME280;40747;49.480;8.658;2023-11-18T04:52:04;101217.00;;;4.60;100.00
54854;BME280;40747;49.480;8.658;2023-11-18T04:54:31;101224.88;;;4.66;100.00
54854;BME280;40747;49.480;8.658;2023-11-18T04:56:56;101224.03;;;4.70;100.00
54854;BME280;40747;49.480;8.658;2023-11-18T04:59:23;101230.09;;;4.68;100.00
54854;BME280;40747;49.480;8.658;2023-11-18T05:01:48;101223.97;;;4.64;100.00
54854;BME280;40747;49.480;8.658;2023-11-18T05:04:13;101209.09;;;4.54;100.00
54854;BME280;40747;49.480;8.658;2023-11-18T05:06:39;101223.94;;;4.59;100.00
54854;BME280;40747;49.480;8.658;2023-11-18T05:09:04;101233.53;;;4.61;100.00
54854;BME280;40747;49.480;8.658;2023-11-18T05:11:33;101234.44;;;4.66;100.00
54854;BME280;40747;49.480;8.658;2023-11-18T05:13:58;101230.13;;;4.71;100.00
54854;BME280;40747;49.480;8.658;2023-11-18T05:16:24;101233.66;;;4.78;100.00
54854;BME280;40747;49.480;8.658;2023-11-18T05:18:49;101230.22;;;4.82;100.00
54854;BME280;40747;49.480;8.658;2023-11-18T05:21:15;101218.91;;;4.81;100.00
54854;BME280;40747;49.480;8.658;2023-11-18T05:23:40;101224.13;;;4.84;100.00
54854;BME280;40747;49.480;8.658;2023-11-18T05:26:05;101231.13;;;4.85;100.00
54854;BME280;40747;49.480;8.658;2023-11-18T05:28:31;101227.69;;;4.92;100.00
54854;BME280;40747;49.480;8.658;2023-11-18T05:30:57;101231.13;;;4.87;100.00
54854;BME280;40747;49.480;8.658;2023-11-18T05:33:23;101224.13;;;4.80;100.00
54854;BME280;40747;49.480;8.658;2023-11-18T05:35:48;101227.47;;;4.66;100.00
54854;BME280;40747;49.480;8.658;2023-11-18T05:38:15;101229.34;;;4.84;100.00
54854;BME280;40747;49.480;8.658;2023-11-18T05:40:43;101228.50;;;4.85;100.00
54854;BME280;40747;49.480;8.658;2023-11-18T05:43:15;101230.31;;;4.92;100.00
54854;BME280;40747;49.480;8.658;2023-11-18T05:45:41;101220.72;;;4.95;100.00
54854;BME280;40747;49.480;8.658;2023-11-18T05:48:27;101215.44;;;4.84;100.00
54854;BME280;40747;49.480;8.658;2023-11-18T05:50:52;101199.78;;;4.88;100.00
54854;BME280;40747;49.480;8.658;2023-11-18T05:53:17;101206.00;;;5.04;100.00
54854;BME280;40747;49.480;8.658;2023-11-18T05:55:42;101210.41;;;5.18;100.00
54854;BME280;40747;49.480;8.658;2023-11-18T05:58:08;101210.50;;;5.32;100.00
54854;BME280;40747;49.480;8.658;2023-11-18T06:00:34;101207.03;;;5.34;100.00
54854;BME280;40747;49.480;8.658;2023-11-18T06:02:59;101205.34;;;5.44;100.00
54854;BME280;40747;49.480;8.658;2023-11-18T06:05:25;101201.88;;;5.50;100.00
54854;BME280;40747;49.480;8.658;2023-11-18T06:07:54;101210.66;;;5.64;100.00
54854;BME280;40747;49.480;8.658;2023-11-18T06:10:19;101216.78;;;5.71;100.00
54854;BME280;40747;49.480;8.658;2023-11-18T06:12:45;101213.31;;;5.77;100.00
54854;BME280;40747;49.480;8.658;2023-11-18T06:15:12;101209.84;;;5.78;100.00
54854;BME280;40747;49.480;8.658;2023-11-18T06:17:40;101206.34;;;5.76;100.00
54854;BME280;40747;49.480;8.658;2023-11-18T06:20:05;101215.97;;;5.87;100.00
54854;BME280;40747;49.480;8.658;2023-11-18T06:22:31;101222.16;;;5.99;100.00
54854;BME280;40747;49.480;8.658;2023-11-18T06:24:56;101209.94;;;5.99;100.00
54854;BME280;40747;49.480;8.658;2023-11-18T06:27:22;101216.91;;;6.00;100.00
54854;BME280;40747;49.480;8.658;2023-11-18T06:29:49;101226.53;;;6.09;100.00
54854;BME280;40747;49.480;8.658;2023-11-18T06:32:15;101227.41;;;6.14;100.00
54854;BME280;40747;49.480;8.658;2023-11-18T06:34:41;101226.53;;;6.17;100.00
54854;BME280;40747;49.480;8.658;2023-11-18T06:37:06;101222.19;;;6.16;100.00
54854;BME280;40747;49.480;8.658;2023-11-18T06:39:32;101219.56;;;6.19;100.00
54854;BME280;40747;49.480;8.658;2023-11-18T06:42:00;101214.34;;;6.20;100.00
54854;BME280;40747;49.480;8.658;2023-11-18T06:44:26;101216.97;;;6.22;100.00
54854;BME280;40747;49.480;8.658;2023-11-18T06:46:51;101215.22;;;6.21;100.00
54854;BME280;40747;49.480;8.658;2023-11-18T06:49:17;101204.72;;;6.15;100.00
54854;BME280;40747;49.480;8.658;2023-11-18T06:51:43;101227.44;;;6.22;100.00
54854;BME280;40747;49.480;8.658;2023-11-18T06:54:09;101230.00;;;6.19;100.00
54854;BME280;40747;49.480;8.658;2023-11-18T06:56:38;101226.56;;;6.26;100.00
54854;BME280;40747;49.480;8.658;2023-11-18T06:59:05;101227.44;;;6.22;100.00
54854;BME280;40747;49.480;8.658;2023-11-18T07:01:31;101228.31;;;6.24;100.00
54854;BME280;40747;49.480;8.658;2023-11-18T07:03:57;101232.66;;;6.25;100.00
54854;BME280;40747;49.480;8.658;2023-11-18T07:06:22;101237.03;;;6.26;100.00
54854;BME280;40747;49.480;8.658;2023-11-18T07:08:48;101236.16;;;6.24;100.00
54854;BME280;40747;49.480;8.658;2023-11-18T07:11:17;101241.38;;;6.29;100.00
54854;BME280;40747;49.480;8.658;2023-11-18T07:13:44;101244.91;;;6.29;100.00
54854;BME280;40747;49.480;8.658;2023-11-18T07:16:09;101238.75;;;6.21;100.00
54854;BME280;40747;49.480;8.658;2023-11-18T07:18:35;101246.63;;;6.27;100.00
54854;BME280;40747;49.480;8.658;2023-11-18T07:21:03;101232.66;;;6.25;100.00
54854;BME280;40747;49.480;8.658;2023-11-18T07:23:30;101230.94;;;6.26;100.00
54854;BME280;40747;49.480;8.658;2023-11-18T07:25:56;101232.69;;;6.28;100.00
54854;BME280;40747;49.480;8.658;2023-11-18T07:28:22;101225.69;;;6.36;100.00
54854;BME280;40747;49.480;8.658;2023-11-18T07:30:48;101224.81;;;6.30;100.00
54854;BME280;40747;49.480;8.658;2023-11-18T07:33:14;101234.41;;;6.42;100.00
54854;BME280;40747;49.480;8.658;2023-11-18T07:35:40;101237.91;;;6.37;100.00
54854;BME280;40747;49.480;8.658;2023-11-18T07:38:05;101215.19;;;6.15;100.00
54854;BME280;40747;49.480;8.658;2023-11-18T07:40:33;101224.66;;;5.80;100.00
54854;BME280;40747;49.480;8.658;2023-11-18T07:42:59;101238.56;;;5.71;100.00
54854;BME280;40747;49.480;8.658;2023-11-18T07:45:26;101239.41;;;5.67;100.00
54854;BME280;40747;49.480;8.658;2023-11-18T07:47:57;101250.66;;;5.46;100.00
54854;BME280;40747;49.480;8.658;2023-11-18T07:50:22;101255.88;;;5.48;100.00
54854;BME280;40747;49.480;8.658;2023-11-18T07:52:47;101239.34;;;5.49;100.00
54854;BME280;40747;49.480;8.658;2023-11-18T07:55:14;101230.66;;;5.51;100.00
54854;BME280;40747;49.480;8.658;2023-11-18T07:57:40;101230.69;;;5.64;100.00
54854;BME280;40747;49.480;8.658;2023-11-18T08:00:07;101236.81;;;5.67;100.00
54854;BME280;40747;49.480;8.658;2023-11-18T08:02:38;101187.88;;;5.32;100.00
54854;BME280;40747;49.480;8.658;2023-11-18T08:05:04;101236.78;;;5.60;100.00
54854;BME280;40747;49.480;8.658;2023-11-18T08:07:35;101237.66;;;5.66;100.00
54854;BME280;40747;49.480;8.658;2023-11-18T08:10:03;101241.22;;;5.81;100.00
54854;BME280;40747;49.480;8.658;2023-11-18T08:12:33;101242.97;;;5.85;100.00
54854;BME280;40747;49.480;8.658;2023-11-18T08:14:59;101242.16;;;5.94;100.00
54854;BME280;40747;49.480;8.658;2023-11-18T08:17:26;101244.69;;;5.70;100.00
54854;BME280;40747;49.480;8.658;2023-11-18T08:19:52;101248.19;;;5.76;100.00
54854;BME280;40747;49.480;8.658;2023-11-18T08:22:27;101253.38;;;5.68;100.00
54854;BME280;40747;49.480;8.658;2023-11-18T08:24:53;101242.03;;;5.66;100.00
54854;BME280;40747;49.480;8.658;2023-11-18T08:27:18;101256.91;;;5.74;100.00
54854;BME280;40747;49.480;8.658;2023-11-18T08:29:44;101255.97;;;5.65;100.00
54854;BME280;40747;49.480;8.658;2023-11-18T08:32:17;101249.94;;;5.83;100.00
54854;BME280;40747;49.480;8.658;2023-11-18T08:34:42;101237.69;;;5.68;100.00
54854;BME280;40747;49.480;8.658;2023-11-18T08:37:08;101238.59;;;5.76;100.00
54854;BME280;40747;49.480;8.658;2023-11-18T08:39:34;101249.06;;;5.79;100.00
54854;BME280;40747;49.480;8.658;2023-11-18T08:42:00;101234.28;;;5.86;100.00
54854;BME280;40747;49.480;8.658;2023-11-18T08:44:26;101233.38;;;5.87;100.00
54854;BME280;40747;49.480;8.658;2023-11-18T08:46:52;101232.63;;;6.08;100.00
54854;BME280;40747;49.480;8.658;2023-11-18T08:49:18;101228.25;;;6.07;100.00
54854;BME280;40747;49.480;8.658;2023-11-18T08:51:47;101243.09;;;6.16;100.00
54854;BME280;40747;49.480;8.658;2023-11-18T08:54:14;101238.81;;;6.39;100.00
54854;BME280;40747;49.480;8.658;2023-11-18T08:57:04;101236.19;;;6.73;100.00
54854;BME280;40747;49.480;8.658;2023-11-18T08:59:44;101218.72;;;6.86;100.00
54854;BME280;40747;49.480;8.658;2023-11-18T09:02:10;101229.16;;;7.13;100.00
54854;BME280;40747;49.480;8.658;2023-11-18T09:04:40;101230.00;;;7.27;100.00
54854;BME280;40747;49.480;8.658;2023-11-18T09:07:08;101223.00;;;7.37;100.00
54854;BME280;40747;49.480;8.658;2023-11-18T09:09:35;101224.69;;;7.49;100.00
54854;BME280;40747;49.480;8.658;2023-11-18T09:12:00;101225.56;;;7.54;100.00
54854;BME280;40747;49.480;8.658;2023-11-18T09:14:28;101215.03;;;7.68;100.00
54854;BME280;40747;49.480;8.658;2023-11-18T09:16:53;101187.16;;;7.42;100.00
54854;BME280;40747;49.480;8.658;2023-11-18T09:19:24;101217.72;;;7.42;100.00
54854;BME280;40747;49.480;8.658;2023-11-18T09:24:20;101207.25;;;7.42;100.00
54854;BME280;40747;49.480;8.658;2023-11-18T09:26:46;101195.88;;;7.49;100.00
54854;BME280;40747;49.480;8.658;2023-11-18T09:29:18;101216.72;;;7.81;100.00
54854;BME280;40747;49.480;8.658;2023-11-18T09:31:47;101212.25;;;7.97;100.00
54854;BME280;40747;49.480;8.658;2023-11-18T09:34:15;101217.44;;;8.08;100.00
54854;BME280;40747;49.480;8.658;2023-11-18T09:36:44;101214.75;;;8.19;100.00
54854;BME280;40747;49.480;8.658;2023-11-18T09:39:10;101215.59;;;8.23;100.00
54854;BME280;40747;49.480;8.658;2023-11-18T09:41:55;101220.81;;;8.29;100.00
54854;BME280;40747;49.480;8.658;2023-11-18T09:44:22;101220.75;;;8.36;100.00
54854;BME280;40747;49.480;8.658;2023-11-18T09:46:56;101214.56;;;8.48;100.00
54854;BME280;40747;49.480;8.658;2023-11-18T09:49:32;101194.50;;;8.38;100.00
54854;BME280;40747;49.480;8.658;2023-11-18T09:52:05;101199.72;;;8.46;100.00
54854;BME280;40747;49.480;8.658;2023-11-18T09:54:39;101200.50;;;8.54;99.96
54854;BME280;40747;49.480;8.658;2023-11-18T09:57:15;101212.16;;;8.16;100.00
54854;BME280;40747;49.480;8.658;2023-11-18T10:00:12;101211.56;;;7.57;100.00
54854;BME280;40747;49.480;8.658;2023-11-18T10:02:52;101206.34;;;7.49;100.00
54854;BME280;40747;49.480;8.658;2023-11-18T10:05:19;101211.59;;;7.49;100.00
54854;BME280;40747;49.480;8.658;2023-11-18T10:07:46;101218.56;;;7.56;100.00
54854;BME280;40747;49.480;8.658;2023-11-18T10:10:15;101215.88;;;7.67;100.00
54854;BME280;40747;49.480;8.658;2023-11-18T10:12:45;101209.91;;;7.35;100.00
54854;BME280;40747;49.480;8.658;2023-11-18T10:15:14;101215.16;;;7.29;100.00
54854;BME280;40747;49.480;8.658;2023-11-18T10:17:45;101207.22;;;7.54;100.00
54854;BME280;40747;49.480;8.658;2023-11-18T10:20:23;101213.34;;;7.50;100.00
54854;BME280;40747;49.480;8.658;2023-11-18T10:23:09;101212.47;;;7.42;100.00
54854;BME280;40747;49.480;8.658;2023-11-18T10:25:36;101212.47;;;7.48;100.00
54854;BME280;40747;49.480;8.658;2023-11-18T10:28:06;101222.03;;;7.67;100.00
54854;BME280;40747;49.480;8.658;2023-11-18T10:30:32;101218.56;;;7.62;100.00
54854;BME280;40747;49.480;8.658;2023-11-18T10:32:59;101219.41;;;7.58;100.00
54854;BME280;40747;49.480;8.658;2023-11-18T10:35:37;101211.63;;;7.43;100.00
54854;BME280;40747;49.480;8.658;2023-11-18T10:38:02;101214.22;;;7.52;100.00
54854;BME280;40747;49.480;8.658;2023-11-18T10:40:34;101213.31;;;7.59;100.00
54854;BME280;40747;49.480;8.658;2023-11-18T10:43:05;101219.44;;;7.53;100.00
54854;BME280;40747;49.480;8.658;2023-11-18T10:45:38;101202.03;;;7.34;100.00
54854;BME280;40747;49.480;8.658;2023-11-18T10:48:06;101194.16;;;7.32;100.00
54854;BME280;40747;49.480;8.658;2023-11-18T10:50:32;101200.28;;;7.30;100.00
54854;BME280;40747;49.480;8.658;2023-11-18T10:53:00;101192.31;;;7.59;100.00
54854;BME280;40747;49.480;8.658;2023-11-18T10:55:44;101187.16;;;7.44;100.00
54854;BME280;40747;49.480;8.658;2023-11-18T10:58:09;101196.69;;;7.60;100.00
54854;BME280;40747;49.480;8.658;2023-11-18T11:00:52;101206.31;;;7.57;100.00
54854;BME280;40747;49.480;8.658;2023-11-18T11:03:25;101193.19;;;7.63;100.00
54854;BME280;40747;49.480;8.658;2023-11-18T11:05:51;101186.16;;;7.69;100.00
54854;BME280;40747;49.480;8.658;2023-11-18T11:08:19;101186.19;;;7.66;100.00
54854;BME280;40747;49.480;8.658;2023-11-18T11:10:45;101181.00;;;7.57;100.00
54854;BME280;40747;49.480;8.658;2023-11-18T11:13:12;101176.56;;;7.61;100.00
54854;BME280;40747;49.480;8.658;2023-11-18T11:15:42;101173.91;;;7.68;100.00
54854;BME280;40747;49.480;8.658;2023-11-18T11:18:11;101157.34;;;7.66;100.00
54854;BME280;40747;49.480;8.658;2023-11-18T11:24:11;101159.94;;;7.73;100.00
54854;BME280;40747;49.480;8.658;2023-11-18T11:26:57;101138.13;;;7.67;100.00
54854;BME280;40747;49.480;8.658;2023-11-18T11:29:42;101153.75;;;7.83;100.00
54854;BME280;40747;49.480;8.658;2023-11-18T11:32:26;101147.63;;;7.81;100.00
54854;BME280;40747;49.480;8.658;2023-11-18T11:35:22;101125.06;;;7.55;100.00
54854;BME280;40747;49.480;8.658;2023-11-18T11:37:48;101123.28;;;7.60;100.00
54854;BME280;40747;49.480;8.658;2023-11-18T11:40:15;101119.78;;;7.61;100.00
54854;BME280;40747;49.480;8.658;2023-11-18T11:42:50;101101.34;;;7.74;100.00
54854;BME280;40747;49.480;8.658;2023-11-18T11:45:24;101098.78;;;7.64;100.00
54854;BME280;40747;49.480;8.658;2023-11-18T11:47:57;101097.94;;;7.59;100.00
54854;BME280;40747;49.480;8.658;2023-11-18T11:51:08;101089.19;;;7.60;100.00
54854;BME280;40747;49.480;8.658;2023-11-18T11:53:48;101096.19;;;7.63;100.00
54854;BME280;40747;49.480;8.658;2023-11-18T11:56:17;101088.22;;;7.74;100.00
54854;BME280;40747;49.480;8.658;2023-11-18T11:58:46;101076.03;;;7.68;100.00
54854;BME280;40747;49.480;8.658;2023-11-18T12:01:26;101069.09;;;7.62;100.00
54854;BME280;40747;49.480;8.658;2023-11-18T12:03:58;101069.03;;;7.68;100.00
54854;BME280;40747;49.480;8.658;2023-11-18T12:06:34;101062.81;;;7.83;100.00
54854;BME280;40747;49.480;8.658;2023-11-18T12:09:05;101065.28;;;8.03;100.00
54854;BME280;40747;49.480;8.658;2023-11-18T12:11:36;101064.34;;;8.12;100.00
54854;BME280;40747;49.480;8.658;2023-11-18T12:14:08;101064.38;;;8.08;100.00
54854;BME280;40747;49.480;8.658;2023-11-18T12:19:32;101051.16;;;8.20;100.00
54854;BME280;40747;49.480;8.658;2023-11-18T12:22:01;101050.31;;;8.15;100.00
54854;BME280;40747;49.480;8.658;2023-11-18T12:24:35;101052.84;;;8.26;100.00
54854;BME280;40747;49.480;8.658;2023-11-18T12:27:00;101054.78;;;8.03;100.00
54854;BME280;40747;49.480;8.658;2023-11-18T12:29:32;101055.56;;;8.15;100.00
54854;BME280;40747;49.480;8.658;2023-11-18T12:31:59;101038.88;;;8.24;100.00
54854;BME280;40747;49.480;8.658;2023-11-18T12:34:51;101048.53;;;8.20;99.90
54854;BME280;40747;49.480;8.658;2023-11-18T12:40:16;101034.53;;;8.19;100.00
54854;BME280;40747;49.480;8.658;2023-11-18T12:45:42;101025.88;;;8.07;100.00
54854;BME280;40747;49.480;8.658;2023-11-18T12:48:16;101027.53;;;8.20;100.00
54854;BME280;40747;49.480;8.658;2023-11-18T12:50:55;101037.13;;;8.23;99.82
54854;BME280;40747;49.480;8.658;2023-11-18T12:53:22;101024.13;;;8.10;100.00
54854;BME280;40747;49.480;8.658;2023-11-18T12:55:49;101027.72;;;7.98;100.00
54854;BME280;40747;49.480;8.658;2023-11-18T12:58:15;101015.34;;;8.16;100.00
54854;BME280;40747;49.480;8.658;2023-11-18T13:00:41;100996.03;;;8.20;99.93
54854;BME280;40747;49.480;8.658;2023-11-18T13:03:08;100996.97;;;8.16;100.00
54854;BME280;40747;49.480;8.658;2023-11-18T13:05:35;100993.56;;;8.06;100.00
54854;BME280;40747;49.480;8.658;2023-11-18T13:08:02;100993.53;;;8.08;100.00
54854;BME280;40747;49.480;8.658;2023-11-18T13:10:28;100984.75;;;8.10;100.00
54854;BME280;40747;49.480;8.658;2023-11-18T13:12:54;100979.44;;;8.18;100.00
54854;BME280;40747;49.480;8.658;2023-11-18T13:15:20;100973.34;;;8.16;100.00